Pembroke, Kentucky
Current Conditions -  °F | °C
As of 5:58 PM on Saturday 22 Nov 2014 (Local Time) from KHOP Reporting Station
Clear Clear  
Wind Chill: 59°   Ceiling: Unl
Heat Index: 59°   Visibility: 10mi
Dew Point: 32°   Wind: 5mph
Humidity: 36%   Direction: 160°SSE
Pressure: 30.08"   Gusts: NA
Location:  36.78°N, 87.36°W
Report Text: KHOP 222358Z AUTO 16004KT 10SM CLR 15/00 A3008 RMK AO2 SLP188 T01520001 10192 20152 55010
Loading
Personal Weather Stations






























Interactive Weather Map New forecast layout! Learn more

10-Day Weather Forecast

Advertisements
Track Severe Weather on mobile